createdAt,value
2018-06-09T00:02:20.173Z,9.73
2018-06-09T00:04:48.368Z,10.20
2018-06-09T00:07:16.833Z,9.97
2018-06-09T00:09:45.035Z,9.93
2018-06-09T00:12:13.253Z,10.37
2018-06-09T00:14:41.485Z,9.43
2018-06-09T00:17:09.720Z,10.07
2018-06-09T00:19:37.921Z,9.93
2018-06-09T00:22:06.137Z,10.30
2018-06-09T00:24:34.357Z,10.33
2018-06-09T00:27:02.612Z,10.63
2018-06-09T00:29:30.938Z,9.73
2018-06-09T00:31:59.139Z,10.20
2018-06-09T00:34:27.349Z,9.73
2018-06-09T00:36:55.700Z,9.97
2018-06-09T00:39:23.929Z,9.70
2018-06-09T00:41:52.140Z,9.10
2018-06-09T00:44:20.368Z,10.10
2018-06-09T00:46:48.587Z,9.77
2018-06-09T00:49:16.792Z,9.10
2018-06-09T00:51:45.657Z,9.07
2018-06-09T00:54:13.864Z,9.73
2018-06-09T00:56:45.867Z,9.50
2018-06-09T00:59:14.126Z,9.27
2018-06-09T01:01:42.346Z,9.37
2018-06-09T01:04:10.549Z,9.23
2018-06-09T01:06:38.812Z,9.30
2018-06-09T01:09:08.500Z,8.83
2018-06-09T01:11:36.692Z,9.07
2018-06-09T01:14:04.953Z,9.27
2018-06-09T01:16:33.171Z,9.27
2018-06-09T01:19:01.410Z,9.07
2018-06-09T01:21:29.651Z,9.20
2018-06-09T01:23:57.852Z,9.53
2018-06-09T01:26:26.060Z,9.40
2018-06-09T01:28:54.259Z,9.57
2018-06-09T01:31:22.486Z,9.67
2018-06-09T01:33:50.697Z,10.77
2018-06-09T01:36:18.916Z,10.13
2018-06-09T01:38:47.152Z,10.63
2018-06-09T01:41:15.368Z,10.27
2018-06-09T01:43:43.649Z,9.67
2018-06-09T01:46:11.855Z,9.27
2018-06-09T01:48:40.056Z,9.63
2018-06-09T01:51:08.275Z,10.00
2018-06-09T01:53:36.483Z,11.03
2018-06-09T01:56:04.702Z,10.37
2018-06-09T01:58:32.899Z,10.43
2018-06-09T02:01:01.124Z,10.47
2018-06-09T02:03:29.308Z,10.00
2018-06-09T02:05:57.534Z,10.60
2018-06-09T02:08:25.744Z,10.30
2018-06-09T02:10:53.948Z,10.20
2018-06-09T02:13:22.191Z,10.27
2018-06-09T02:15:50.423Z,10.00
2018-06-09T02:18:18.652Z,10.30
2018-06-09T02:20:46.876Z,10.70
2018-06-09T02:23:15.108Z,9.97
2018-06-09T02:25:43.352Z,10.17
2018-06-09T02:28:12.333Z,10.17
2018-06-09T02:30:40.561Z,10.00
2018-06-09T02:33:08.888Z,9.73
2018-06-09T02:35:37.100Z,10.07
2018-06-09T02:38:05.419Z,9.23
2018-06-09T02:40:33.628Z,9.77
2018-06-09T02:43:01.898Z,10.10
2018-06-09T02:45:30.095Z,9.67
2018-06-09T02:47:58.291Z,9.70
2018-06-09T02:50:26.491Z,9.87
2018-06-09T02:52:54.695Z,9.90
2018-06-09T02:55:22.913Z,9.87
2018-06-09T02:57:51.133Z,9.63
2018-06-09T03:00:19.381Z,10.27
2018-06-09T03:02:47.585Z,10.07
2018-06-09T03:05:15.804Z,11.37
2018-06-09T03:07:44.038Z,10.33
2018-06-09T03:10:12.260Z,11.17
2018-06-09T03:12:40.475Z,11.07
2018-06-09T03:15:08.776Z,11.30
2018-06-09T03:17:36.971Z,11.17
2018-06-09T03:20:05.181Z,10.77
2018-06-09T03:22:33.379Z,11.40
2018-06-09T03:25:01.600Z,11.40
2018-06-09T03:27:29.818Z,11.43
2018-06-09T03:29:58.056Z,12.23
2018-06-09T03:32:26.282Z,12.20
2018-06-09T03:34:54.466Z,11.30
2018-06-09T03:37:22.726Z,11.53
2018-06-09T03:39:50.955Z,11.80
2018-06-09T03:42:19.178Z,11.47
2018-06-09T03:44:47.382Z,11.13
2018-06-09T03:47:15.588Z,11.10
2018-06-09T03:49:43.872Z,11.00
2018-06-09T03:52:12.377Z,14.40
2018-06-09T03:54:40.572Z,11.67
2018-06-09T03:57:08.775Z,11.07
2018-06-09T03:59:37.008Z,10.47
2018-06-09T04:02:05.415Z,10.67
2018-06-09T04:04:33.609Z,11.07
2018-06-09T04:07:01.813Z,11.50
2018-06-09T04:09:30.021Z,11.20
2018-06-09T04:11:58.243Z,11.70
2018-06-09T04:14:26.471Z,12.00
2018-06-09T04:16:54.672Z,11.63
2018-06-09T04:19:22.886Z,11.40
2018-06-09T04:21:51.108Z,11.77
2018-06-09T04:24:19.335Z,11.57
2018-06-09T04:26:47.533Z,11.73
2018-06-09T04:29:15.735Z,12.17
2018-06-09T04:31:43.939Z,11.80
2018-06-09T04:34:12.156Z,12.20
2018-06-09T04:36:40.428Z,11.73
2018-06-09T04:39:08.812Z,14.37
2018-06-09T04:41:37.020Z,12.43
2018-06-09T04:44:05.380Z,20.13
2018-06-09T04:46:33.579Z,14.67
2018-06-09T04:49:01.784Z,11.97
2018-06-09T04:51:30.006Z,12.10
2018-06-09T04:53:58.217Z,11.93
2018-06-09T04:56:26.416Z,10.97
2018-06-09T04:58:54.640Z,11.37
2018-06-09T05:01:22.840Z,11.03
2018-06-09T05:03:51.052Z,11.23
2018-06-09T05:06:19.266Z,10.30
2018-06-09T05:08:47.508Z,11.07
2018-06-09T05:11:15.705Z,11.97
2018-06-09T05:13:43.947Z,22.07
2018-06-09T05:16:12.328Z,12.00
2018-06-09T05:18:40.574Z,12.47
2018-06-09T05:21:08.781Z,14.10
2018-06-09T05:23:36.972Z,13.70
2018-06-09T05:26:05.272Z,12.83
2018-06-09T05:28:33.488Z,13.03
2018-06-09T05:31:01.741Z,11.80
2018-06-09T05:33:29.940Z,12.20
2018-06-09T05:35:58.245Z,14.20
2018-06-09T05:38:26.463Z,13.63
2018-06-09T05:40:54.612Z,12.60
2018-06-09T05:43:22.804Z,12.83
2018-06-09T05:45:51.041Z,12.33
2018-06-09T05:48:19.277Z,16.10
2018-06-09T05:50:47.512Z,12.00
2018-06-09T05:53:15.724Z,12.17
2018-06-09T05:55:44.206Z,11.03
2018-06-09T05:58:12.408Z,12.37
2018-06-09T06:00:40.778Z,12.07
2018-06-09T06:03:09.117Z,11.97
2018-06-09T06:05:37.286Z,12.07
2018-06-09T06:08:05.561Z,12.20
2018-06-09T06:10:33.780Z,13.27
2018-06-09T06:13:01.989Z,14.50
2018-06-09T06:15:30.205Z,11.17
2018-06-09T06:17:58.399Z,10.77
2018-06-09T06:20:26.788Z,10.97
2018-06-09T06:22:55.568Z,10.30
2018-06-09T06:25:23.840Z,11.10
2018-06-09T06:27:52.087Z,10.40
2018-06-09T06:30:20.836Z,10.33
2018-06-09T06:32:49.048Z,9.90
2018-06-09T06:35:17.411Z,10.50
2018-06-09T06:37:45.738Z,9.90
2018-06-09T06:40:14.177Z,10.50
2018-06-09T06:42:42.494Z,11.63
2018-06-09T06:45:11.709Z,10.57
2018-06-09T06:47:39.948Z,10.30
2018-06-09T06:50:08.278Z,10.20
2018-06-09T06:52:36.698Z,10.30
2018-06-09T06:55:05.121Z,11.13
2018-06-09T06:57:33.331Z,10.63
2018-06-09T07:00:01.548Z,9.93
2018-06-09T07:02:29.741Z,10.03
2018-06-09T07:04:57.964Z,10.07
2018-06-09T07:07:26.172Z,10.23
2018-06-09T07:09:54.385Z,10.20
2018-06-09T07:12:22.584Z,9.97
2018-06-09T07:14:50.784Z,10.37
2018-06-09T07:17:18.975Z,10.10
2018-06-09T07:19:47.179Z,9.80
2018-06-09T07:22:15.434Z,10.40
2018-06-09T07:24:43.616Z,9.67
2018-06-09T07:27:11.831Z,9.33
2018-06-09T07:29:40.022Z,9.63
2018-06-09T07:32:08.255Z,10.20
2018-06-09T07:34:36.451Z,10.40
2018-06-09T07:37:04.684Z,10.00
2018-06-09T07:39:32.879Z,12.90
2018-06-09T07:42:01.115Z,15.33
2018-06-09T07:44:29.372Z,11.83
2018-06-09T07:46:57.684Z,33.33
2018-06-09T07:49:25.908Z,14.23
2018-06-09T07:51:54.129Z,11.90
2018-06-09T07:54:22.344Z,10.83
2018-06-09T07:56:50.556Z,10.50
2018-06-09T07:59:18.781Z,11.00
2018-06-09T08:01:46.995Z,11.20
2018-06-09T08:04:15.204Z,10.33
2018-06-09T08:06:43.421Z,11.00
2018-06-09T08:09:11.748Z,10.97
2018-06-09T08:11:40.131Z,10.83
2018-06-09T08:14:08.340Z,10.30
2018-06-09T08:16:36.581Z,10.97
2018-06-09T08:19:04.833Z,11.30
2018-06-09T08:21:33.062Z,10.30
2018-06-09T08:24:01.389Z,10.37
2018-06-09T08:26:29.588Z,10.53
2018-06-09T08:28:57.821Z,10.30
2018-06-09T08:31:26.017Z,10.27
2018-06-09T08:33:54.220Z,10.60
2018-06-09T08:36:22.477Z,9.77
2018-06-09T08:38:50.646Z,10.10
2018-06-09T08:41:18.844Z,10.33
2018-06-09T08:43:47.325Z,9.90
2018-06-09T08:46:15.528Z,9.50
2018-06-09T08:48:43.740Z,13.60
2018-06-09T08:51:11.936Z,11.93
2018-06-09T08:53:40.148Z,10.27
2018-06-09T08:56:08.493Z,9.70
2018-06-09T08:58:36.704Z,9.80
2018-06-09T09:01:04.997Z,9.73
2018-06-09T09:03:33.208Z,9.33
2018-06-09T09:06:01.427Z,9.10
2018-06-09T09:08:29.648Z,9.17
2018-06-09T09:10:57.840Z,9.13
2018-06-09T09:13:26.084Z,9.60
2018-06-09T09:15:54.301Z,10.10
2018-06-09T09:18:22.488Z,9.87
2018-06-09T09:20:50.699Z,9.30
2018-06-09T09:23:18.909Z,9.53
2018-06-09T09:25:47.143Z,9.60
2018-06-09T09:28:15.380Z,9.37
2018-06-09T09:30:43.628Z,9.20
2018-06-09T09:33:11.855Z,9.30
2018-06-09T09:35:40.052Z,8.97
2018-06-09T09:38:08.241Z,9.07
2018-06-09T09:40:36.440Z,8.37
2018-06-09T09:43:04.657Z,8.63
2018-06-09T09:45:32.863Z,7.90
2018-06-09T09:48:01.074Z,7.70
2018-06-09T09:50:29.316Z,8.20
2018-06-09T09:52:57.520Z,7.77
2018-06-09T09:55:25.749Z,8.20
2018-06-09T09:57:58.485Z,7.47
2018-06-09T10:00:32.019Z,7.50
2018-06-09T10:03:00.205Z,6.80
2018-06-09T10:05:28.418Z,6.80
2018-06-09T10:07:56.619Z,6.97
2018-06-09T10:10:24.822Z,7.53
2018-06-09T10:12:53.119Z,7.20
2018-06-09T10:15:21.311Z,7.00
2018-06-09T10:17:49.520Z,6.53
2018-06-09T10:20:17.485Z,6.70
2018-06-09T10:22:45.827Z,5.87
2018-06-09T10:25:14.051Z,6.47
2018-06-09T10:27:42.255Z,6.70
2018-06-09T10:30:10.548Z,6.73
2018-06-09T10:32:38.752Z,6.40
2018-06-09T10:35:07.021Z,6.03
2018-06-09T10:37:35.240Z,6.47
2018-06-09T10:40:03.461Z,6.40
2018-06-09T10:42:31.655Z,6.23
2018-06-09T10:44:59.863Z,7.93
2018-06-09T10:47:28.071Z,6.70
2018-06-09T10:49:56.272Z,6.57
2018-06-09T10:52:24.466Z,7.13
2018-06-09T10:54:52.684Z,7.13
2018-06-09T10:57:20.891Z,7.37
2018-06-09T10:59:49.131Z,7.40
2018-06-09T11:02:17.342Z,8.07
2018-06-09T11:04:45.553Z,8.13
2018-06-09T11:07:13.760Z,8.40
2018-06-09T11:09:41.971Z,7.90
2018-06-09T11:12:10.400Z,7.60
2018-06-09T11:14:38.590Z,7.90
2018-06-09T11:17:06.792Z,7.93
2018-06-09T11:19:35.011Z,7.97
2018-06-09T11:22:03.260Z,9.03
2018-06-09T11:24:31.531Z,8.10
2018-06-09T11:26:59.689Z,9.40
2018-06-09T11:29:27.892Z,9.00
2018-06-09T11:31:56.096Z,9.03
2018-06-09T11:34:24.329Z,8.47
2018-06-09T11:36:52.528Z,9.60
2018-06-09T11:39:20.732Z,8.80
2018-06-09T11:41:48.949Z,8.30
2018-06-09T11:44:17.180Z,7.20
2018-06-09T11:46:45.388Z,6.90
2018-06-09T11:49:13.609Z,6.53
2018-06-09T11:51:41.849Z,7.07
2018-06-09T11:54:10.874Z,6.80
2018-06-09T11:56:39.076Z,6.63
2018-06-09T11:59:07.904Z,7.20
2018-06-09T12:01:36.137Z,7.20
2018-06-09T12:04:04.323Z,7.33
2018-06-09T12:06:32.533Z,7.63
2018-06-09T12:09:00.740Z,7.23
2018-06-09T12:11:28.942Z,8.33
2018-06-09T12:13:57.160Z,8.00
2018-06-09T12:16:25.369Z,7.87
2018-06-09T12:18:53.560Z,7.90
2018-06-09T12:21:21.769Z,7.13
2018-06-09T12:23:49.955Z,7.40
2018-06-09T12:26:18.160Z,7.10
2018-06-09T12:28:46.352Z,8.07
2018-06-09T12:31:14.550Z,7.27
2018-06-09T12:33:42.880Z,7.03
2018-06-09T12:36:11.061Z,7.63
2018-06-09T12:38:39.248Z,7.50
2018-06-09T12:41:07.448Z,6.97
2018-06-09T12:43:35.663Z,7.40
2018-06-09T12:46:03.900Z,6.77
2018-06-09T12:48:32.182Z,7.40
2018-06-09T12:51:00.338Z,7.47
2018-06-09T12:53:28.545Z,7.30
2018-06-09T12:55:56.751Z,7.77
2018-06-09T12:58:24.957Z,7.30
2018-06-09T13:00:53.168Z,7.10
2018-06-09T13:03:21.404Z,7.10
2018-06-09T13:05:49.650Z,7.13
2018-06-09T13:08:17.803Z,6.93
2018-06-09T13:10:46.000Z,7.20
2018-06-09T13:13:14.205Z,7.43
2018-06-09T13:15:42.403Z,6.53
2018-06-09T13:18:10.605Z,7.17
2018-06-09T13:20:38.800Z,7.77
2018-06-09T13:23:07.013Z,7.60
2018-06-09T13:25:35.240Z,7.30
2018-06-09T13:28:03.464Z,7.37
2018-06-09T13:30:31.693Z,7.03
2018-06-09T13:33:00.379Z,7.10
2018-06-09T13:35:28.593Z,6.70
2018-06-09T13:37:56.805Z,6.50
2018-06-09T13:40:24.791Z,6.77
2018-06-09T13:42:53.005Z,7.03
2018-06-09T13:45:21.217Z,6.90
2018-06-09T13:47:49.415Z,6.83
2018-06-09T13:50:17.620Z,7.07
2018-06-09T13:52:45.816Z,7.97
2018-06-09T13:55:14.016Z,8.03
2018-06-09T13:57:42.208Z,8.60
2018-06-09T14:00:10.432Z,8.97
2018-06-09T14:02:38.639Z,8.43
2018-06-09T14:05:06.900Z,8.57
2018-06-09T14:07:35.099Z,8.10
2018-06-09T14:10:03.357Z,8.50
2018-06-09T14:12:31.569Z,8.03
2018-06-09T14:14:59.763Z,8.47
2018-06-09T14:17:27.973Z,8.33
2018-06-09T14:19:56.179Z,8.47
2018-06-09T14:22:24.384Z,7.97
2018-06-09T14:24:52.577Z,8.33
2018-06-09T14:27:20.776Z,8.53
2018-06-09T14:29:49.005Z,8.93
2018-06-09T14:32:17.224Z,8.77
2018-06-09T14:34:45.419Z,8.50
2018-06-09T14:37:13.638Z,9.17
2018-06-09T14:39:41.849Z,8.80
2018-06-09T14:42:10.084Z,8.60
2018-06-09T14:44:38.276Z,8.30
2018-06-09T14:47:06.477Z,8.67
2018-06-09T14:49:34.677Z,8.63
2018-06-09T14:52:02.905Z,8.50
2018-06-09T14:54:31.100Z,8.90
2018-06-09T14:56:59.303Z,9.23
2018-06-09T14:59:27.509Z,8.50
2018-06-09T15:01:55.717Z,9.20
2018-06-09T15:04:24.636Z,9.37
2018-06-09T15:06:52.877Z,8.93
2018-06-09T15:09:21.059Z,8.53
2018-06-09T15:11:49.278Z,9.00
2018-06-09T15:14:17.503Z,10.17
2018-06-09T15:16:45.748Z,9.57
2018-06-09T15:19:13.955Z,9.97
2018-06-09T15:21:42.163Z,10.33
2018-06-09T15:24:10.368Z,10.57
2018-06-09T15:26:38.571Z,10.17
2018-06-09T15:29:06.937Z,11.03
2018-06-09T15:31:35.203Z,10.77
2018-06-09T15:34:03.434Z,11.30
2018-06-09T15:36:31.636Z,11.20
2018-06-09T15:38:59.852Z,10.93
2018-06-09T15:41:28.124Z,10.83
2018-06-09T15:43:56.353Z,11.47
2018-06-09T15:46:24.560Z,7.00
2018-06-09T15:48:52.799Z,5.23
2018-06-09T15:51:21.015Z,4.60
2018-06-09T15:53:49.436Z,5.60
2018-06-09T15:56:17.676Z,4.93
2018-06-09T15:58:45.928Z,4.87
2018-06-09T16:01:14.176Z,5.10
2018-06-09T16:03:42.968Z,5.63
2018-06-09T16:06:11.196Z,4.80
2018-06-09T16:08:39.405Z,5.63
2018-06-09T16:11:07.613Z,5.80
2018-06-09T16:13:35.854Z,6.83
2018-06-09T16:16:04.097Z,5.40
2018-06-09T16:18:32.328Z,5.17
2018-06-09T16:21:00.584Z,5.57
2018-06-09T16:23:28.959Z,5.63
2018-06-09T16:25:57.145Z,5.80
2018-06-09T16:28:25.370Z,6.17
2018-06-09T16:30:53.605Z,5.60
2018-06-09T16:33:21.811Z,6.57
2018-06-09T16:35:50.011Z,6.00
2018-06-09T16:38:18.198Z,5.90
2018-06-09T16:40:46.388Z,5.67
2018-06-09T16:43:14.585Z,5.43
2018-06-09T16:45:42.825Z,5.40
2018-06-09T16:48:10.988Z,5.83
2018-06-09T16:50:39.192Z,5.87
2018-06-09T16:53:08.931Z,7.07
2018-06-09T16:55:36.897Z,6.70
2018-06-09T16:58:05.172Z,6.03
2018-06-09T17:00:33.406Z,5.67
2018-06-09T17:03:01.590Z,5.77
2018-06-09T17:05:30.012Z,4.87
2018-06-09T17:07:58.242Z,5.50
2018-06-09T17:10:26.445Z,5.70
2018-06-09T17:12:54.652Z,5.60
2018-06-09T17:15:22.859Z,5.30
2018-06-09T17:17:51.074Z,5.60
2018-06-09T17:20:19.265Z,5.30
2018-06-09T17:22:47.502Z,5.60
2018-06-09T17:25:15.725Z,5.10
2018-06-09T17:27:44.080Z,5.57
2018-06-09T17:30:12.268Z,5.40
2018-06-09T17:32:40.491Z,5.03
2018-06-09T17:35:08.772Z,5.40
2018-06-09T17:37:36.984Z,5.20
2018-06-09T17:40:05.197Z,5.03
2018-06-09T17:42:33.463Z,5.00
2018-06-09T17:45:01.612Z,4.30
2018-06-09T17:47:30.440Z,4.53
2018-06-09T17:49:58.752Z,3.87
2018-06-09T17:52:27.018Z,4.03
2018-06-09T17:54:55.444Z,5.43
2018-06-09T17:57:23.674Z,3.93
2018-06-09T17:59:51.897Z,4.17
2018-06-09T18:02:20.093Z,4.00
2018-06-09T18:04:48.295Z,4.23
2018-06-09T18:07:16.493Z,4.53
2018-06-09T18:09:44.712Z,4.53
2018-06-09T18:12:12.926Z,4.30
2018-06-09T18:14:41.121Z,3.90
2018-06-09T18:17:09.324Z,4.07
2018-06-09T18:19:37.578Z,4.40
2018-06-09T18:22:05.774Z,4.30
2018-06-09T18:24:33.984Z,4.20
2018-06-09T18:27:02.179Z,4.47
2018-06-09T18:29:30.408Z,3.70
2018-06-09T18:31:58.611Z,4.00
2018-06-09T18:34:26.842Z,3.67
2018-06-09T18:36:55.029Z,3.70
2018-06-09T18:39:23.262Z,4.03
2018-06-09T18:41:51.494Z,4.70
2018-06-09T18:44:19.698Z,4.17
2018-06-09T18:46:47.917Z,4.30
2018-06-09T18:49:16.133Z,4.67
2018-06-09T18:51:44.345Z,5.83
2018-06-09T18:54:12.552Z,7.23
2018-06-09T18:56:40.748Z,7.07
2018-06-09T18:59:08.996Z,6.30
2018-06-09T19:01:37.242Z,5.97
2018-06-09T19:04:05.752Z,6.37
2018-06-09T19:06:33.970Z,6.00
2018-06-09T19:09:02.380Z,5.93
2018-06-09T19:11:30.608Z,6.30
2018-06-09T19:13:58.812Z,6.40
2018-06-09T19:16:27.029Z,6.17
2018-06-09T19:18:55.229Z,6.67
2018-06-09T19:21:23.431Z,6.30
2018-06-09T19:23:51.628Z,6.50
2018-06-09T19:26:19.880Z,5.97
2018-06-09T19:28:48.098Z,6.67
2018-06-09T19:31:16.297Z,5.87
2018-06-09T19:33:44.521Z,6.43
2018-06-09T19:36:12.732Z,6.20
2018-06-09T19:38:40.904Z,6.20
2018-06-09T19:41:09.137Z,5.97
2018-06-09T19:43:37.401Z,5.90
2018-06-09T19:46:05.552Z,5.90
2018-06-09T19:48:34.765Z,5.60
2018-06-09T19:51:03.000Z,6.03
2018-06-09T19:53:31.207Z,6.20
2018-06-09T19:55:59.420Z,6.20
2018-06-09T19:58:27.649Z,6.80
2018-06-09T20:00:55.864Z,5.93
2018-06-09T20:03:24.106Z,6.43
2018-06-09T20:05:52.288Z,6.27
2018-06-09T20:08:20.486Z,6.83
2018-06-09T20:10:48.680Z,7.80
2018-06-09T20:13:16.879Z,7.40
2018-06-09T20:15:45.092Z,6.50
2018-06-09T20:18:13.292Z,6.57
2018-06-09T20:20:41.491Z,6.13
2018-06-09T20:23:09.727Z,6.60
2018-06-09T20:25:37.924Z,6.80
2018-06-09T20:28:06.320Z,7.70
2018-06-09T20:30:34.538Z,7.47
2018-06-09T20:33:02.776Z,8.70
2018-06-09T20:35:30.963Z,8.53
2018-06-09T20:37:59.169Z,8.80
2018-06-09T20:40:28.443Z,7.97
2018-06-09T20:42:56.692Z,8.07
2018-06-09T20:45:24.981Z,8.20
2018-06-09T20:47:53.213Z,7.70
2018-06-09T20:50:21.533Z,8.00
2018-06-09T20:52:49.748Z,7.90
2018-06-09T20:55:18.018Z,8.23
2018-06-09T20:57:46.393Z,10.23
2018-06-09T21:00:14.633Z,17.27
2018-06-09T21:02:43.464Z,12.23
2018-06-09T21:05:11.668Z,11.23
2018-06-09T21:07:39.921Z,11.13
2018-06-09T21:10:08.143Z,10.17
2018-06-09T21:12:36.337Z,8.90
2018-06-09T21:15:04.548Z,8.57
2018-06-09T21:17:32.733Z,7.77
2018-06-09T21:20:00.976Z,8.53
2018-06-09T21:22:29.167Z,8.00
2018-06-09T21:24:57.390Z,7.87
2018-06-09T21:27:33.665Z,8.40
2018-06-09T21:30:10.188Z,7.93
2018-06-09T21:32:46.038Z,8.77
2018-06-09T21:35:31.051Z,8.90
2018-06-09T21:38:04.692Z,8.40
2018-06-09T21:40:38.047Z,8.93
2018-06-09T21:43:11.663Z,8.23
2018-06-09T21:45:45.252Z,8.53
2018-06-09T21:48:13.522Z,8.53
2018-06-09T21:50:41.734Z,7.83
2018-06-09T21:53:09.936Z,8.80
2018-06-09T21:55:38.141Z,7.77
2018-06-09T21:58:06.464Z,24.67
2018-06-09T22:00:34.672Z,9.00
2018-06-09T22:03:02.989Z,8.27
2018-06-09T22:05:31.196Z,7.60
2018-06-09T22:07:59.404Z,10.93
2018-06-09T22:10:27.647Z,10.03
2018-06-09T22:12:55.851Z,9.50
2018-06-09T22:15:24.065Z,8.40
2018-06-09T22:17:52.289Z,8.63
2018-06-09T22:20:20.552Z,8.50
2018-06-09T22:22:48.748Z,8.33
2018-06-09T22:25:22.286Z,8.20
2018-06-09T22:27:50.248Z,8.40
2018-06-09T22:30:18.463Z,8.10
2018-06-09T22:32:46.672Z,8.47
2018-06-09T22:35:14.870Z,8.07
2018-06-09T22:37:43.092Z,8.10
2018-06-09T22:40:11.324Z,8.73
2018-06-09T22:42:39.307Z,9.20
2018-06-09T22:45:07.509Z,8.57
2018-06-09T22:47:35.730Z,8.30
2018-06-09T22:50:04.123Z,8.20
2018-06-09T22:52:32.339Z,8.63
2018-06-09T22:55:00.540Z,8.97
2018-06-09T22:57:28.770Z,8.63
2018-06-09T22:59:56.976Z,9.47
2018-06-09T23:02:25.241Z,8.53
2018-06-09T23:04:53.373Z,8.10
2018-06-09T23:07:21.598Z,8.50
2018-06-09T23:09:49.808Z,9.00
2018-06-09T23:12:18.025Z,8.57
2018-06-09T23:14:46.253Z,8.43
2018-06-09T23:17:14.221Z,8.47
2018-06-09T23:19:42.416Z,8.30
2018-06-09T23:22:10.618Z,8.97
2018-06-09T23:24:38.824Z,8.33
2018-06-09T23:27:07.032Z,9.03
2018-06-09T23:29:35.301Z,8.70
2018-06-09T23:32:03.660Z,8.83
2018-06-09T23:34:31.876Z,9.63
2018-06-09T23:37:00.067Z,9.10
2018-06-09T23:39:28.280Z,9.00
2018-06-09T23:41:56.501Z,9.80
2018-06-09T23:44:24.701Z,10.20
2018-06-09T23:46:53.011Z,13.77
2018-06-09T23:49:21.214Z,9.23
2018-06-09T23:51:49.425Z,7.90
2018-06-09T23:54:17.624Z,8.40
2018-06-09T23:56:45.833Z,7.93
2018-06-09T23:59:14.048Z,7.70
